sensor_id;sensor_type;location;lat;lon;timestamp;P1;durP1;ratioP1;P2;durP2;ratioP2
16286;SDS011;8251;53.568;10.018;2023-04-24T00:00:49;5.77;;;3.47;;
16286;SDS011;8251;53.568;10.018;2023-04-24T00:03:22;6.97;;;3.50;;
16286;SDS011;8251;53.568;10.018;2023-04-24T00:05:54;5.17;;;3.00;;
16286;SDS011;8251;53.568;10.018;2023-04-24T00:08:26;4.67;;;3.10;;
16286;SDS011;8251;53.568;10.018;2023-04-24T00:10:55;3.47;;;3.17;;
16286;SDS011;8251;53.568;10.018;2023-04-24T00:13:24;4.17;;;2.90;;
16286;SDS011;8251;53.568;10.018;2023-04-24T00:15:54;3.80;;;3.10;;
16286;SDS011;8251;53.568;10.018;2023-04-24T00:18:22;3.73;;;3.10;;
16286;SDS011;8251;53.568;10.018;2023-04-24T00:20:49;3.60;;;2.90;;
16286;SDS011;8251;53.568;10.018;2023-04-24T00:23:16;3.80;;;2.90;;
16286;SDS011;8251;53.568;10.018;2023-04-24T00:25:46;3.53;;;2.93;;
16286;SDS011;8251;53.568;10.018;2023-04-24T00:28:12;3.50;;;2.90;;
16286;SDS011;8251;53.568;10.018;2023-04-24T00:30:42;6.23;;;2.87;;
16286;SDS011;8251;53.568;10.018;2023-04-24T00:33:09;3.83;;;3.10;;
16286;SDS011;8251;53.568;10.018;2023-04-24T00:35:36;3.30;;;3.00;;
16286;SDS011;8251;53.568;10.018;2023-04-24T00:38:03;3.93;;;3.03;;
16286;SDS011;8251;53.568;10.018;2023-04-24T00:40:33;3.57;;;2.93;;
16286;SDS011;8251;53.568;10.018;2023-04-24T00:43:07;3.10;;;2.80;;
16286;SDS011;8251;53.568;10.018;2023-04-24T00:45:34;4.83;;;3.40;;
16286;SDS011;8251;53.568;10.018;2023-04-24T00:48:03;3.10;;;2.80;;
16286;SDS011;8251;53.568;10.018;2023-04-24T00:50:30;5.17;;;3.50;;
16286;SDS011;8251;53.568;10.018;2023-04-24T00:53:00;4.77;;;2.87;;
16286;SDS011;8251;53.568;10.018;2023-04-24T00:55:27;4.80;;;3.57;;
16286;SDS011;8251;53.568;10.018;2023-04-24T00:57:54;5.23;;;3.17;;
16286;SDS011;8251;53.568;10.018;2023-04-24T01:00:25;5.20;;;3.10;;
16286;SDS011;8251;53.568;10.018;2023-04-24T01:02:52;4.53;;;3.07;;
16286;SDS011;8251;53.568;10.018;2023-04-24T01:05:19;3.23;;;2.87;;
16286;SDS011;8251;53.568;10.018;2023-04-24T01:07:46;3.63;;;3.10;;
16286;SDS011;8251;53.568;10.018;2023-04-24T01:10:14;4.87;;;3.23;;
16286;SDS011;8251;53.568;10.018;2023-04-24T01:12:42;7.57;;;3.30;;
16286;SDS011;8251;53.568;10.018;2023-04-24T01:15:09;3.10;;;2.77;;
16286;SDS011;8251;53.568;10.018;2023-04-24T01:17:38;5.27;;;2.87;;
16286;SDS011;8251;53.568;10.018;2023-04-24T01:20:05;3.80;;;2.90;;
16286;SDS011;8251;53.568;10.018;2023-04-24T01:22:40;3.53;;;2.70;;
16286;SDS011;8251;53.568;10.018;2023-04-24T01:25:10;3.17;;;2.70;;
16286;SDS011;8251;53.568;10.018;2023-04-24T01:27:37;4.47;;;2.70;;
16286;SDS011;8251;53.568;10.018;2023-04-24T01:30:05;5.47;;;2.80;;
16286;SDS011;8251;53.568;10.018;2023-04-24T01:32:33;4.63;;;2.70;;
16286;SDS011;8251;53.568;10.018;2023-04-24T01:35:01;3.23;;;2.53;;
16286;SDS011;8251;53.568;10.018;2023-04-24T01:37:31;6.50;;;3.03;;
16286;SDS011;8251;53.568;10.018;2023-04-24T01:39:59;3.43;;;2.50;;
16286;SDS011;8251;53.568;10.018;2023-04-24T01:42:26;3.30;;;2.30;;
16286;SDS011;8251;53.568;10.018;2023-04-24T01:44:53;2.80;;;2.10;;
16286;SDS011;8251;53.568;10.018;2023-04-24T01:47:20;2.53;;;2.00;;
16286;SDS011;8251;53.568;10.018;2023-04-24T01:49:47;4.50;;;2.00;;
16286;SDS011;8251;53.568;10.018;2023-04-24T01:52:18;2.93;;;1.97;;
16286;SDS011;8251;53.568;10.018;2023-04-24T01:54:48;2.50;;;2.30;;
16286;SDS011;8251;53.568;10.018;2023-04-24T01:57:16;2.30;;;2.00;;
16286;SDS011;8251;53.568;10.018;2023-04-24T01:59:43;3.37;;;1.60;;
16286;SDS011;8251;53.568;10.018;2023-04-24T02:02:10;2.80;;;1.90;;
16286;SDS011;8251;53.568;10.018;2023-04-24T02:04:37;1.87;;;1.70;;
16286;SDS011;8251;53.568;10.018;2023-04-24T02:07:08;2.30;;;1.93;;
16286;SDS011;8251;53.568;10.018;2023-04-24T02:09:35;3.63;;;1.60;;
16286;SDS011;8251;53.568;10.018;2023-04-24T02:12:02;2.90;;;2.10;;
16286;SDS011;8251;53.568;10.018;2023-04-24T02:14:30;2.27;;;1.80;;
16286;SDS011;8251;53.568;10.018;2023-04-24T02:16:57;4.23;;;1.70;;
16286;SDS011;8251;53.568;10.018;2023-04-24T02:19:24;3.20;;;2.10;;
16286;SDS011;8251;53.568;10.018;2023-04-24T02:21:50;3.67;;;2.00;;
16286;SDS011;8251;53.568;10.018;2023-04-24T02:24:17;2.50;;;2.13;;
16286;SDS011;8251;53.568;10.018;2023-04-24T02:26:45;2.43;;;1.73;;
16286;SDS011;8251;53.568;10.018;2023-04-24T02:29:11;4.93;;;1.70;;
16286;SDS011;8251;53.568;10.018;2023-04-24T02:31:42;2.07;;;1.80;;
16286;SDS011;8251;53.568;10.018;2023-04-24T02:34:09;2.87;;;1.67;;
16286;SDS011;8251;53.568;10.018;2023-04-24T02:36:36;2.63;;;1.73;;
16286;SDS011;8251;53.568;10.018;2023-04-24T02:39:03;4.13;;;2.20;;
16286;SDS011;8251;53.568;10.018;2023-04-24T02:41:30;1.60;;;1.43;;
16286;SDS011;8251;53.568;10.018;2023-04-24T02:44:02;1.63;;;1.53;;
16286;SDS011;8251;53.568;10.018;2023-04-24T02:46:29;2.77;;;2.00;;
16286;SDS011;8251;53.568;10.018;2023-04-24T02:48:57;3.77;;;1.87;;
16286;SDS011;8251;53.568;10.018;2023-04-24T02:51:24;1.90;;;1.70;;
16286;SDS011;8251;53.568;10.018;2023-04-24T02:53:51;1.90;;;1.40;;
16286;SDS011;8251;53.568;10.018;2023-04-24T02:56:18;1.60;;;1.50;;
16286;SDS011;8251;53.568;10.018;2023-04-24T02:58:46;2.07;;;1.30;;
16286;SDS011;8251;53.568;10.018;2023-04-24T03:01:13;3.80;;;1.60;;
16286;SDS011;8251;53.568;10.018;2023-04-24T03:03:43;1.60;;;1.50;;
16286;SDS011;8251;53.568;10.018;2023-04-24T03:06:12;1.60;;;1.30;;
16286;SDS011;8251;53.568;10.018;2023-04-24T03:08:42;2.17;;;1.40;;
16286;SDS011;8251;53.568;10.018;2023-04-24T03:11:08;1.60;;;1.43;;
16286;SDS011;8251;53.568;10.018;2023-04-24T03:13:38;1.40;;;1.30;;
16286;SDS011;8251;53.568;10.018;2023-04-24T03:16:05;2.67;;;1.40;;
16286;SDS011;8251;53.568;10.018;2023-04-24T03:18:32;1.20;;;1.10;;
16286;SDS011;8251;53.568;10.018;2023-04-24T03:20:59;2.83;;;1.63;;
16286;SDS011;8251;53.568;10.018;2023-04-24T03:23:31;1.93;;;1.30;;
16286;SDS011;8251;53.568;10.018;2023-04-24T03:25:58;1.20;;;1.10;;
16286;SDS011;8251;53.568;10.018;2023-04-24T03:28:26;2.33;;;1.27;;
16286;SDS011;8251;53.568;10.018;2023-04-24T03:30:52;1.23;;;1.10;;
16286;SDS011;8251;53.568;10.018;2023-04-24T03:33:22;1.37;;;1.27;;
16286;SDS011;8251;53.568;10.018;2023-04-24T03:35:49;1.50;;;1.30;;
16286;SDS011;8251;53.568;10.018;2023-04-24T03:38:16;1.50;;;1.40;;
16286;SDS011;8251;53.568;10.018;2023-04-24T03:40:44;1.80;;;1.10;;
16286;SDS011;8251;53.568;10.018;2023-04-24T03:43:12;1.87;;;0.90;;
16286;SDS011;8251;53.568;10.018;2023-04-24T03:45:38;1.30;;;1.20;;
16286;SDS011;8251;53.568;10.018;2023-04-24T03:48:05;1.90;;;1.40;;
16286;SDS011;8251;53.568;10.018;2023-04-24T03:50:34;1.23;;;1.13;;
16286;SDS011;8251;53.568;10.018;2023-04-24T03:53:01;1.20;;;1.10;;
16286;SDS011;8251;53.568;10.018;2023-04-24T03:55:28;2.53;;;1.20;;
16286;SDS011;8251;53.568;10.018;2023-04-24T03:57:59;1.30;;;1.20;;
16286;SDS011;8251;53.568;10.018;2023-04-24T04:00:26;1.10;;;1.10;;
16286;SDS011;8251;53.568;10.018;2023-04-24T04:02:53;1.23;;;1.13;;
16286;SDS011;8251;53.568;10.018;2023-04-24T04:05:20;1.03;;;1.03;;
16286;SDS011;8251;53.568;10.018;2023-04-24T04:07:50;1.97;;;0.87;;
16286;SDS011;8251;53.568;10.018;2023-04-24T04:10:16;1.10;;;1.00;;
16286;SDS011;8251;53.568;10.018;2023-04-24T04:12:43;1.17;;;1.07;;
16286;SDS011;8251;53.568;10.018;2023-04-24T04:15:12;1.00;;;0.77;;
16286;SDS011;8251;53.568;10.018;2023-04-24T04:17:39;0.90;;;0.90;;
16286;SDS011;8251;53.568;10.018;2023-04-24T04:20:07;1.20;;;1.10;;
16286;SDS011;8251;53.568;10.018;2023-04-24T04:22:36;1.10;;;1.10;;
16286;SDS011;8251;53.568;10.018;2023-04-24T04:25:05;2.37;;;1.00;;
16286;SDS011;8251;53.568;10.018;2023-04-24T04:27:33;2.30;;;1.00;;
16286;SDS011;8251;53.568;10.018;2023-04-24T04:30:01;1.13;;;1.07;;
16286;SDS011;8251;53.568;10.018;2023-04-24T04:32:31;5.43;;;1.93;;
16286;SDS011;8251;53.568;10.018;2023-04-24T04:35:01;2.23;;;1.10;;
16286;SDS011;8251;53.568;10.018;2023-04-24T04:37:28;1.50;;;1.00;;
16286;SDS011;8251;53.568;10.018;2023-04-24T04:39:56;2.70;;;1.10;;
16286;SDS011;8251;53.568;10.018;2023-04-24T04:42:23;1.77;;;1.00;;
16286;SDS011;8251;53.568;10.018;2023-04-24T04:44:51;1.20;;;1.07;;
16286;SDS011;8251;53.568;10.018;2023-04-24T04:47:21;1.77;;;1.30;;
16286;SDS011;8251;53.568;10.018;2023-04-24T04:49:50;1.30;;;1.20;;
16286;SDS011;8251;53.568;10.018;2023-04-24T04:52:17;1.00;;;1.00;;
16286;SDS011;8251;53.568;10.018;2023-04-24T04:54:44;1.23;;;0.97;;
16286;SDS011;8251;53.568;10.018;2023-04-24T04:57:12;2.03;;;1.67;;
16286;SDS011;8251;53.568;10.018;2023-04-24T04:59:39;1.40;;;1.30;;
16286;SDS011;8251;53.568;10.018;2023-04-24T05:02:09;1.27;;;1.10;;
16286;SDS011;8251;53.568;10.018;2023-04-24T05:04:36;12.13;;;1.33;;
16286;SDS011;8251;53.568;10.018;2023-04-24T05:07:07;1.20;;;1.07;;
16286;SDS011;8251;53.568;10.018;2023-04-24T05:09:34;1.30;;;1.20;;
16286;SDS011;8251;53.568;10.018;2023-04-24T05:12:01;1.30;;;1.20;;
16286;SDS011;8251;53.568;10.018;2023-04-24T05:14:28;3.03;;;1.30;;
16286;SDS011;8251;53.568;10.018;2023-04-24T05:16:55;0.90;;;0.90;;
16286;SDS011;8251;53.568;10.018;2023-04-24T05:19:23;1.60;;;1.13;;
16286;SDS011;8251;53.568;10.018;2023-04-24T05:21:50;2.00;;;1.40;;
16286;SDS011;8251;53.568;10.018;2023-04-24T05:24:18;3.93;;;2.40;;
16286;SDS011;8251;53.568;10.018;2023-04-24T05:26:46;1.37;;;1.20;;
16286;SDS011;8251;53.568;10.018;2023-04-24T05:29:13;0.80;;;0.80;;
16286;SDS011;8251;53.568;10.018;2023-04-24T05:31:42;1.33;;;1.23;;
16286;SDS011;8251;53.568;10.018;2023-04-24T05:34:09;1.07;;;0.97;;
16286;SDS011;8251;53.568;10.018;2023-04-24T05:36:36;1.10;;;0.70;;
16286;SDS011;8251;53.568;10.018;2023-04-24T05:39:05;5.23;;;1.20;;
16286;SDS011;8251;53.568;10.018;2023-04-24T05:41:47;2.40;;;1.10;;
16286;SDS011;8251;53.568;10.018;2023-04-24T05:44:23;0.77;;;0.77;;
16286;SDS011;8251;53.568;10.018;2023-04-24T05:46:50;2.93;;;0.97;;
16286;SDS011;8251;53.568;10.018;2023-04-24T05:49:17;1.20;;;1.00;;
16286;SDS011;8251;53.568;10.018;2023-04-24T05:51:44;1.47;;;1.27;;
16286;SDS011;8251;53.568;10.018;2023-04-24T05:54:12;1.07;;;1.00;;
16286;SDS011;8251;53.568;10.018;2023-04-24T05:56:40;1.63;;;1.03;;
16286;SDS011;8251;53.568;10.018;2023-04-24T05:59:08;1.80;;;1.70;;
16286;SDS011;8251;53.568;10.018;2023-04-24T06:01:35;1.00;;;1.00;;
16286;SDS011;8251;53.568;10.018;2023-04-24T06:04:04;2.70;;;1.20;;
16286;SDS011;8251;53.568;10.018;2023-04-24T06:06:32;2.00;;;1.80;;
16286;SDS011;8251;53.568;10.018;2023-04-24T06:08:59;3.00;;;1.20;;
16286;SDS011;8251;53.568;10.018;2023-04-24T06:11:27;1.27;;;1.20;;
16286;SDS011;8251;53.568;10.018;2023-04-24T06:13:57;2.33;;;1.33;;
16286;SDS011;8251;53.568;10.018;2023-04-24T06:16:26;1.00;;;1.00;;
16286;SDS011;8251;53.568;10.018;2023-04-24T06:18:54;1.13;;;1.10;;
16286;SDS011;8251;53.568;10.018;2023-04-24T06:21:24;1.43;;;1.23;;
16286;SDS011;8251;53.568;10.018;2023-04-24T06:23:53;2.60;;;1.53;;
16286;SDS011;8251;53.568;10.018;2023-04-24T06:26:30;1.13;;;1.10;;
16286;SDS011;8251;53.568;10.018;2023-04-24T06:29:09;1.37;;;1.27;;
16286;SDS011;8251;53.568;10.018;2023-04-24T06:31:36;1.50;;;1.40;;
16286;SDS011;8251;53.568;10.018;2023-04-24T06:34:03;2.90;;;1.30;;
16286;SDS011;8251;53.568;10.018;2023-04-24T06:36:31;1.40;;;1.30;;
16286;SDS011;8251;53.568;10.018;2023-04-24T06:38:59;1.30;;;1.20;;
16286;SDS011;8251;53.568;10.018;2023-04-24T06:41:26;7.43;;;1.30;;
16286;SDS011;8251;53.568;10.018;2023-04-24T06:43:55;1.30;;;1.13;;
16286;SDS011;8251;53.568;10.018;2023-04-24T06:46:30;3.17;;;1.27;;
16286;SDS011;8251;53.568;10.018;2023-04-24T06:48:57;1.33;;;1.23;;
16286;SDS011;8251;53.568;10.018;2023-04-24T06:51:25;2.53;;;1.40;;
16286;SDS011;8251;53.568;10.018;2023-04-24T06:53:53;1.60;;;1.30;;
16286;SDS011;8251;53.568;10.018;2023-04-24T06:56:21;2.10;;;1.17;;
16286;SDS011;8251;53.568;10.018;2023-04-24T06:58:48;1.37;;;1.27;;
16286;SDS011;8251;53.568;10.018;2023-04-24T07:01:15;1.40;;;1.30;;
16286;SDS011;8251;53.568;10.018;2023-04-24T07:03:43;6.13;;;2.03;;
16286;SDS011;8251;53.568;10.018;2023-04-24T07:06:13;2.13;;;1.20;;
16286;SDS011;8251;53.568;10.018;2023-04-24T07:08:43;1.60;;;1.50;;
16286;SDS011;8251;53.568;10.018;2023-04-24T07:11:11;1.87;;;1.50;;
16286;SDS011;8251;53.568;10.018;2023-04-24T07:13:39;3.70;;;1.40;;
16286;SDS011;8251;53.568;10.018;2023-04-24T07:16:07;1.77;;;1.60;;
16286;SDS011;8251;53.568;10.018;2023-04-24T07:18:35;2.10;;;1.70;;
16286;SDS011;8251;53.568;10.018;2023-04-24T07:21:04;2.00;;;1.80;;
16286;SDS011;8251;53.568;10.018;2023-04-24T07:23:32;1.43;;;1.33;;
16286;SDS011;8251;53.568;10.018;2023-04-24T07:26:02;2.47;;;1.73;;
16286;SDS011;8251;53.568;10.018;2023-04-24T07:28:29;1.83;;;1.73;;
16286;SDS011;8251;53.568;10.018;2023-04-24T07:30:57;2.37;;;1.90;;
16286;SDS011;8251;53.568;10.018;2023-04-24T07:33:25;1.83;;;1.63;;
16286;SDS011;8251;53.568;10.018;2023-04-24T07:35:52;3.03;;;1.97;;
16286;SDS011;8251;53.568;10.018;2023-04-24T07:38:20;3.03;;;2.70;;
16286;SDS011;8251;53.568;10.018;2023-04-24T07:40:47;3.20;;;1.97;;
16286;SDS011;8251;53.568;10.018;2023-04-24T07:43:14;2.10;;;1.90;;
16286;SDS011;8251;53.568;10.018;2023-04-24T07:45:49;2.30;;;2.10;;
16286;SDS011;8251;53.568;10.018;2023-04-24T07:48:20;2.20;;;2.00;;
16286;SDS011;8251;53.568;10.018;2023-04-24T07:50:47;2.60;;;2.33;;
16286;SDS011;8251;53.568;10.018;2023-04-24T07:53:14;2.37;;;2.17;;
16286;SDS011;8251;53.568;10.018;2023-04-24T07:55:42;2.03;;;1.93;;
16286;SDS011;8251;53.568;10.018;2023-04-24T07:58:09;2.50;;;2.30;;
16286;SDS011;8251;53.568;10.018;2023-04-24T08:00:38;3.70;;;2.30;;
16286;SDS011;8251;53.568;10.018;2023-04-24T08:03:05;2.93;;;2.50;;
16286;SDS011;8251;53.568;10.018;2023-04-24T08:05:32;4.27;;;2.37;;
16286;SDS011;8251;53.568;10.018;2023-04-24T08:08:00;2.10;;;1.90;;
16286;SDS011;8251;53.568;10.018;2023-04-24T08:10:29;3.47;;;2.53;;
16286;SDS011;8251;53.568;10.018;2023-04-24T08:12:57;3.00;;;2.70;;
16286;SDS011;8251;53.568;10.018;2023-04-24T08:15:24;3.17;;;2.87;;
16286;SDS011;8251;53.568;10.018;2023-04-24T08:17:51;3.03;;;2.73;;
16286;SDS011;8251;53.568;10.018;2023-04-24T08:20:18;2.67;;;2.47;;
16286;SDS011;8251;53.568;10.018;2023-04-24T08:22:45;2.77;;;2.53;;
16286;SDS011;8251;53.568;10.018;2023-04-24T08:25:13;6.93;;;2.93;;
16286;SDS011;8251;53.568;10.018;2023-04-24T08:27:40;3.20;;;2.90;;
16286;SDS011;8251;53.568;10.018;2023-04-24T08:30:09;4.03;;;3.17;;
16286;SDS011;8251;53.568;10.018;2023-04-24T08:32:37;3.73;;;2.87;;
16286;SDS011;8251;53.568;10.018;2023-04-24T08:35:04;4.70;;;2.90;;
16286;SDS011;8251;53.568;10.018;2023-04-24T08:37:34;2.43;;;2.23;;
16286;SDS011;8251;53.568;10.018;2023-04-24T08:40:01;3.67;;;2.87;;
16286;SDS011;8251;53.568;10.018;2023-04-24T08:42:36;3.00;;;2.70;;
16286;SDS011;8251;53.568;10.018;2023-04-24T08:45:04;2.80;;;2.30;;
16286;SDS011;8251;53.568;10.018;2023-04-24T08:47:36;3.43;;;2.80;;
16286;SDS011;8251;53.568;10.018;2023-04-24T08:50:05;2.93;;;2.60;;
16286;SDS011;8251;53.568;10.018;2023-04-24T08:52:33;3.03;;;2.77;;
16286;SDS011;8251;53.568;10.018;2023-04-24T08:55:04;7.37;;;2.83;;
16286;SDS011;8251;53.568;10.018;2023-04-24T08:57:32;4.77;;;2.90;;
16286;SDS011;8251;53.568;10.018;2023-04-24T09:00:01;9.00;;;3.10;;
16286;SDS011;8251;53.568;10.018;2023-04-24T09:02:29;3.60;;;3.30;;
16286;SDS011;8251;53.568;10.018;2023-04-24T09:05:00;3.73;;;3.30;;
16286;SDS011;8251;53.568;10.018;2023-04-24T09:07:34;3.20;;;2.97;;
16286;SDS011;8251;53.568;10.018;2023-04-24T09:10:07;3.60;;;2.83;;
16286;SDS011;8251;53.568;10.018;2023-04-24T09:12:35;5.87;;;2.93;;
16286;SDS011;8251;53.568;10.018;2023-04-24T09:15:03;3.63;;;3.30;;
16286;SDS011;8251;53.568;10.018;2023-04-24T09:17:30;3.80;;;3.17;;
16286;SDS011;8251;53.568;10.018;2023-04-24T09:19:58;5.23;;;3.57;;
16286;SDS011;8251;53.568;10.018;2023-04-24T09:22:26;4.63;;;3.80;;
16286;SDS011;8251;53.568;10.018;2023-04-24T09:24:59;3.70;;;3.13;;
16286;SDS011;8251;53.568;10.018;2023-04-24T09:27:29;5.03;;;2.97;;
16286;SDS011;8251;53.568;10.018;2023-04-24T09:29:57;3.57;;;3.27;;
16286;SDS011;8251;53.568;10.018;2023-04-24T09:32:25;4.63;;;3.03;;
16286;SDS011;8251;53.568;10.018;2023-04-24T09:35:08;5.20;;;2.83;;
16286;SDS011;8251;53.568;10.018;2023-04-24T09:37:38;4.87;;;3.20;;
16286;SDS011;8251;53.568;10.018;2023-04-24T09:40:08;4.87;;;3.03;;
16286;SDS011;8251;53.568;10.018;2023-04-24T09:42:37;4.10;;;3.23;;
16286;SDS011;8251;53.568;10.018;2023-04-24T09:45:06;2.80;;;2.60;;
16286;SDS011;8251;53.568;10.018;2023-04-24T09:47:36;3.27;;;2.97;;
16286;SDS011;8251;53.568;10.018;2023-04-24T09:50:10;3.90;;;3.60;;
16286;SDS011;8251;53.568;10.018;2023-04-24T09:52:46;3.93;;;2.90;;
16286;SDS011;8251;53.568;10.018;2023-04-24T09:55:22;3.23;;;2.93;;
16286;SDS011;8251;53.568;10.018;2023-04-24T09:57:50;4.83;;;3.57;;
16286;SDS011;8251;53.568;10.018;2023-04-24T10:00:23;3.00;;;2.70;;
16286;SDS011;8251;53.568;10.018;2023-04-24T10:02:55;3.83;;;3.03;;
16286;SDS011;8251;53.568;10.018;2023-04-24T10:05:24;4.23;;;3.10;;
16286;SDS011;8251;53.568;10.018;2023-04-24T10:07:57;4.27;;;3.83;;
16286;SDS011;8251;53.568;10.018;2023-04-24T10:10:26;6.23;;;3.57;;
16286;SDS011;8251;53.568;10.018;2023-04-24T10:12:54;4.33;;;3.93;;
16286;SDS011;8251;53.568;10.018;2023-04-24T10:15:23;5.43;;;4.20;;
16286;SDS011;8251;53.568;10.018;2023-04-24T10:17:58;4.40;;;4.00;;
16286;SDS011;8251;53.568;10.018;2023-04-24T10:20:31;4.47;;;3.93;;
16286;SDS011;8251;53.568;10.018;2023-04-24T10:23:01;7.57;;;4.10;;
16286;SDS011;8251;53.568;10.018;2023-04-24T10:25:30;4.97;;;4.30;;
16286;SDS011;8251;53.568;10.018;2023-04-24T10:27:58;6.10;;;4.37;;
16286;SDS011;8251;53.568;10.018;2023-04-24T10:30:30;5.03;;;4.53;;
16286;SDS011;8251;53.568;10.018;2023-04-24T10:33:00;7.67;;;5.23;;
16286;SDS011;8251;53.568;10.018;2023-04-24T10:35:31;9.90;;;5.80;;
16286;SDS011;8251;53.568;10.018;2023-04-24T10:38:06;6.93;;;5.27;;
16286;SDS011;8251;53.568;10.018;2023-04-24T10:40:36;7.73;;;5.43;;
16286;SDS011;8251;53.568;10.018;2023-04-24T10:43:03;9.00;;;5.53;;
16286;SDS011;8251;53.568;10.018;2023-04-24T10:45:33;6.50;;;5.30;;
16286;SDS011;8251;53.568;10.018;2023-04-24T10:48:01;9.70;;;6.43;;
16286;SDS011;8251;53.568;10.018;2023-04-24T10:50:29;6.80;;;5.30;;
16286;SDS011;8251;53.568;10.018;2023-04-24T10:53:14;5.70;;;5.10;;
16286;SDS011;8251;53.568;10.018;2023-04-24T10:55:46;6.20;;;5.53;;
16286;SDS011;8251;53.568;10.018;2023-04-24T10:58:14;12.90;;;6.20;;
16286;SDS011;8251;53.568;10.018;2023-04-24T11:00:42;8.57;;;6.13;;
16286;SDS011;8251;53.568;10.018;2023-04-24T11:03:22;8.73;;;5.20;;
16286;SDS011;8251;53.568;10.018;2023-04-24T11:05:52;11.47;;;5.87;;
16286;SDS011;8251;53.568;10.018;2023-04-24T11:08:26;8.43;;;5.67;;
16286;SDS011;8251;53.568;10.018;2023-04-24T11:10:57;6.47;;;5.40;;
16286;SDS011;8251;53.568;10.018;2023-04-24T11:13:25;19.07;;;6.30;;
16286;SDS011;8251;53.568;10.018;2023-04-24T11:16:12;8.93;;;5.40;;
16286;SDS011;8251;53.568;10.018;2023-04-24T11:18:41;8.43;;;5.50;;
16286;SDS011;8251;53.568;10.018;2023-04-24T11:21:16;8.90;;;5.07;;
16286;SDS011;8251;53.568;10.018;2023-04-24T11:23:47;7.43;;;5.43;;
16286;SDS011;8251;53.568;10.018;2023-04-24T11:26:17;6.97;;;5.50;;
16286;SDS011;8251;53.568;10.018;2023-04-24T11:29:06;6.33;;;4.97;;
16286;SDS011;8251;53.568;10.018;2023-04-24T11:31:36;9.23;;;6.07;;
16286;SDS011;8251;53.568;10.018;2023-04-24T11:34:08;6.30;;;5.07;;
16286;SDS011;8251;53.568;10.018;2023-04-24T11:36:37;7.50;;;5.30;;
16286;SDS011;8251;53.568;10.018;2023-04-24T11:39:05;7.60;;;4.93;;
16286;SDS011;8251;53.568;10.018;2023-04-24T11:41:36;7.67;;;5.30;;
16286;SDS011;8251;53.568;10.018;2023-04-24T11:44:05;7.57;;;4.90;;
16286;SDS011;8251;53.568;10.018;2023-04-24T11:46:35;10.03;;;5.63;;
16286;SDS011;8251;53.568;10.018;2023-04-24T11:49:03;9.27;;;4.63;;
16286;SDS011;8251;53.568;10.018;2023-04-24T11:51:30;16.07;;;5.90;;
16286;SDS011;8251;53.568;10.018;2023-04-24T11:53:57;6.43;;;5.07;;
16286;SDS011;8251;53.568;10.018;2023-04-24T11:56:26;7.40;;;4.23;;
16286;SDS011;8251;53.568;10.018;2023-04-24T11:58:58;6.00;;;4.27;;
16286;SDS011;8251;53.568;10.018;2023-04-24T12:01:26;4.67;;;4.17;;
16286;SDS011;8251;53.568;10.018;2023-04-24T12:03:59;9.03;;;4.33;;
16286;SDS011;8251;53.568;10.018;2023-04-24T12:06:26;4.93;;;4.23;;
16286;SDS011;8251;53.568;10.018;2023-04-24T12:08:53;5.07;;;4.00;;
16286;SDS011;8251;53.568;10.018;2023-04-24T12:11:22;4.73;;;4.17;;
16286;SDS011;8251;53.568;10.018;2023-04-24T12:13:51;5.10;;;4.00;;
16286;SDS011;8251;53.568;10.018;2023-04-24T12:16:18;4.70;;;3.67;;
16286;SDS011;8251;53.568;10.018;2023-04-24T12:18:45;5.30;;;4.47;;
16286;SDS011;8251;53.568;10.018;2023-04-24T12:21:16;5.00;;;4.33;;
16286;SDS011;8251;53.568;10.018;2023-04-24T12:23:44;5.07;;;4.17;;
16286;SDS011;8251;53.568;10.018;2023-04-24T12:26:11;6.20;;;4.30;;
16286;SDS011;8251;53.568;10.018;2023-04-24T12:28:38;6.90;;;4.20;;
16286;SDS011;8251;53.568;10.018;2023-04-24T12:31:07;6.77;;;4.13;;
16286;SDS011;8251;53.568;10.018;2023-04-24T12:33:35;5.73;;;4.03;;
16286;SDS011;8251;53.568;10.018;2023-04-24T12:36:02;6.37;;;4.17;;
16286;SDS011;8251;53.568;10.018;2023-04-24T12:38:33;4.83;;;4.03;;
16286;SDS011;8251;53.568;10.018;2023-04-24T12:41:06;7.27;;;4.57;;
16286;SDS011;8251;53.568;10.018;2023-04-24T12:43:35;4.93;;;3.83;;
16286;SDS011;8251;53.568;10.018;2023-04-24T12:46:02;6.67;;;3.80;;
16286;SDS011;8251;53.568;10.018;2023-04-24T12:48:31;4.70;;;4.30;;
16286;SDS011;8251;53.568;10.018;2023-04-24T12:50:58;5.87;;;4.30;;
16286;SDS011;8251;53.568;10.018;2023-04-24T12:53:27;6.47;;;4.47;;
16286;SDS011;8251;53.568;10.018;2023-04-24T12:55:56;5.50;;;4.87;;
16286;SDS011;8251;53.568;10.018;2023-04-24T12:58:24;5.07;;;4.47;;
16286;SDS011;8251;53.568;10.018;2023-04-24T13:00:51;7.30;;;4.43;;
16286;SDS011;8251;53.568;10.018;2023-04-24T13:03:18;4.47;;;4.07;;
16286;SDS011;8251;53.568;10.018;2023-04-24T13:05:48;6.20;;;4.50;;
16286;SDS011;8251;53.568;10.018;2023-04-24T13:08:16;5.23;;;4.50;;
16286;SDS011;8251;53.568;10.018;2023-04-24T13:10:43;5.93;;;4.90;;
16286;SDS011;8251;53.568;10.018;2023-04-24T13:13:10;6.13;;;4.73;;
16286;SDS011;8251;53.568;10.018;2023-04-24T13:15:37;6.30;;;3.70;;
16286;SDS011;8251;53.568;10.018;2023-04-24T13:18:04;4.27;;;3.83;;
16286;SDS011;8251;53.568;10.018;2023-04-24T13:20:31;4.17;;;3.77;;
16286;SDS011;8251;53.568;10.018;2023-04-24T13:23:01;5.90;;;3.97;;
16286;SDS011;8251;53.568;10.018;2023-04-24T13:25:30;6.93;;;4.37;;
16286;SDS011;8251;53.568;10.018;2023-04-24T13:28:04;6.80;;;4.33;;
16286;SDS011;8251;53.568;10.018;2023-04-24T13:30:31;4.13;;;3.73;;
16286;SDS011;8251;53.568;10.018;2023-04-24T13:33:00;5.17;;;4.00;;
16286;SDS011;8251;53.568;10.018;2023-04-24T13:35:30;4.70;;;3.80;;
16286;SDS011;8251;53.568;10.018;2023-04-24T13:37:57;4.97;;;3.40;;
16286;SDS011;8251;53.568;10.018;2023-04-24T13:40:27;6.30;;;3.33;;
16286;SDS011;8251;53.568;10.018;2023-04-24T13:43:01;4.77;;;3.37;;
16286;SDS011;8251;53.568;10.018;2023-04-24T13:45:28;3.70;;;3.17;;
16286;SDS011;8251;53.568;10.018;2023-04-24T13:47:56;3.50;;;3.10;;
16286;SDS011;8251;53.568;10.018;2023-04-24T13:50:23;3.63;;;3.10;;
16286;SDS011;8251;53.568;10.018;2023-04-24T13:52:50;4.17;;;2.60;;
16286;SDS011;8251;53.568;10.018;2023-04-24T13:55:21;5.07;;;2.90;;
16286;SDS011;8251;53.568;10.018;2023-04-24T13:57:52;3.10;;;2.80;;
16286;SDS011;8251;53.568;10.018;2023-04-24T14:00:20;4.20;;;3.20;;
16286;SDS011;8251;53.568;10.018;2023-04-24T14:02:47;3.80;;;3.20;;
16286;SDS011;8251;53.568;10.018;2023-04-24T14:05:14;3.30;;;3.00;;
16286;SDS011;8251;53.568;10.018;2023-04-24T14:07:41;3.30;;;2.93;;
16286;SDS011;8251;53.568;10.018;2023-04-24T14:10:08;4.10;;;3.60;;
16286;SDS011;8251;53.568;10.018;2023-04-24T14:12:36;4.13;;;3.47;;
16286;SDS011;8251;53.568;10.018;2023-04-24T14:15:07;7.00;;;3.80;;
16286;SDS011;8251;53.568;10.018;2023-04-24T14:17:35;4.90;;;3.50;;
16286;SDS011;8251;53.568;10.018;2023-04-24T14:20:02;9.50;;;3.67;;
16286;SDS011;8251;53.568;10.018;2023-04-24T14:22:30;3.27;;;2.97;;
16286;SDS011;8251;53.568;10.018;2023-04-24T14:24:57;6.80;;;3.30;;
16286;SDS011;8251;53.568;10.018;2023-04-24T14:27:25;2.43;;;2.23;;
16286;SDS011;8251;53.568;10.018;2023-04-24T14:29:52;2.63;;;2.43;;
16286;SDS011;8251;53.568;10.018;2023-04-24T14:32:21;3.03;;;2.67;;
16286;SDS011;8251;53.568;10.018;2023-04-24T14:34:48;3.00;;;2.50;;
16286;SDS011;8251;53.568;10.018;2023-04-24T14:37:15;4.57;;;3.00;;
16286;SDS011;8251;53.568;10.018;2023-04-24T14:39:43;3.70;;;3.07;;
16286;SDS011;8251;53.568;10.018;2023-04-24T14:42:13;3.60;;;3.30;;
16286;SDS011;8251;53.568;10.018;2023-04-24T14:44:43;3.07;;;2.70;;
16286;SDS011;8251;53.568;10.018;2023-04-24T14:47:10;5.17;;;3.70;;
16286;SDS011;8251;53.568;10.018;2023-04-24T14:49:38;7.60;;;4.07;;
16286;SDS011;8251;53.568;10.018;2023-04-24T14:52:05;5.13;;;4.23;;
16286;SDS011;8251;53.568;10.018;2023-04-24T14:54:32;4.60;;;4.20;;
16286;SDS011;8251;53.568;10.018;2023-04-24T14:56:59;4.50;;;4.03;;